createdAt,value
2017-10-03T00:02:03.767Z,17.33
2017-10-03T00:04:34.878Z,17.30
2017-10-03T00:07:06.965Z,17.28
2017-10-03T00:09:38.047Z,17.28
2017-10-03T00:12:09.184Z,17.27
2017-10-03T00:14:40.323Z,17.27
2017-10-03T00:17:11.729Z,17.25
2017-10-03T00:19:42.955Z,17.27
2017-10-03T00:22:15.209Z,17.22
2017-10-03T00:24:46.272Z,17.21
2017-10-03T00:27:17.612Z,17.17
2017-10-03T00:29:48.930Z,17.16
2017-10-03T00:32:23.725Z,17.19
2017-10-03T00:34:54.800Z,17.21
2017-10-03T00:37:27.762Z,17.15
2017-10-03T00:39:59.421Z,17.02
2017-10-03T00:45:36.037Z,16.85
2017-10-03T00:48:08.247Z,16.81
2017-10-03T00:50:39.352Z,16.77
2017-10-03T00:53:10.436Z,16.70
2017-10-03T00:55:41.652Z,16.65
2017-10-03T00:58:13.135Z,16.60
2017-10-03T01:00:44.481Z,16.56
2017-10-03T01:03:22.040Z,16.56
2017-10-03T01:05:53.797Z,16.52
2017-10-03T01:08:27.105Z,16.48
2017-10-03T01:10:59.052Z,16.43
2017-10-03T01:13:30.552Z,16.36
2017-10-03T01:16:02.766Z,16.32
2017-10-03T01:18:34.160Z,16.22
2017-10-03T01:21:05.503Z,16.15
2017-10-03T01:23:36.661Z,16.14
2017-10-03T01:26:08.421Z,16.16
2017-10-03T01:28:42.449Z,16.18
2017-10-03T01:31:15.646Z,16.18
2017-10-03T01:33:46.822Z,16.17
2017-10-03T01:36:20.124Z,16.16
2017-10-03T01:38:51.394Z,16.17
2017-10-03T01:41:23.133Z,16.18
2017-10-03T01:43:54.558Z,16.17
2017-10-03T01:46:26.960Z,16.18
2017-10-03T01:48:58.289Z,16.05
2017-10-03T01:51:29.959Z,15.97
2017-10-03T01:54:02.879Z,15.90
2017-10-03T01:56:35.460Z,15.85
2017-10-03T01:59:06.510Z,15.76
2017-10-03T02:01:37.603Z,15.64
2017-10-03T02:04:09.542Z,15.61
2017-10-03T02:06:42.781Z,15.59
2017-10-03T02:09:17.921Z,15.51
2017-10-03T02:11:49.033Z,15.44
2017-10-03T02:14:20.841Z,15.41
2017-10-03T02:16:51.993Z,15.41
2017-10-03T02:19:24.848Z,15.43
2017-10-03T02:21:56.622Z,15.40
2017-10-03T02:24:31.301Z,15.30
2017-10-03T02:27:03.316Z,15.25
2017-10-03T02:29:38.475Z,15.21
2017-10-03T02:32:11.993Z,15.19
2017-10-03T02:34:43.063Z,15.17
2017-10-03T02:37:14.900Z,15.12
2017-10-03T02:39:46.236Z,15.09
2017-10-03T02:42:17.899Z,15.08
2017-10-03T02:44:49.737Z,15.07
2017-10-03T02:47:21.672Z,15.04
2017-10-03T02:49:53.850Z,15.05
2017-10-03T02:52:25.898Z,15.06
2017-10-03T02:54:57.031Z,14.99
2017-10-03T02:57:29.741Z,14.96
2017-10-03T03:00:03.084Z,14.91
2017-10-03T03:02:34.385Z,14.90
2017-10-03T03:05:07.232Z,14.91
2017-10-03T03:07:40.197Z,14.90
2017-10-03T03:10:12.912Z,14.88
2017-10-03T03:12:44.012Z,14.86
2017-10-03T03:15:15.099Z,14.88
2017-10-03T03:17:46.183Z,14.89
2017-10-03T03:20:17.932Z,14.85
2017-10-03T03:22:50.003Z,14.78
2017-10-03T03:25:21.456Z,14.78
2017-10-03T03:27:53.981Z,14.77
2017-10-03T03:30:26.604Z,14.76
2017-10-03T03:32:58.483Z,14.79
2017-10-03T03:35:31.606Z,14.76
2017-10-03T03:38:04.781Z,14.77
2017-10-03T03:40:35.919Z,14.70
2017-10-03T03:43:09.332Z,14.66
2017-10-03T03:45:40.420Z,14.66
2017-10-03T03:48:13.179Z,14.67
2017-10-03T03:50:44.388Z,14.66
2017-10-03T03:53:15.593Z,14.67
2017-10-03T03:55:47.097Z,14.65
2017-10-03T03:58:18.706Z,14.67
2017-10-03T04:00:49.733Z,14.63
2017-10-03T04:03:21.480Z,14.63
2017-10-03T04:05:52.585Z,14.62
2017-10-03T04:08:23.880Z,14.55
2017-10-03T04:10:54.926Z,14.54
2017-10-03T04:13:26.450Z,14.58
2017-10-03T04:15:57.508Z,14.57
2017-10-03T04:18:30.105Z,14.60
2017-10-03T04:21:01.986Z,14.59
2017-10-03T04:23:33.444Z,14.60
2017-10-03T04:26:05.828Z,14.61
2017-10-03T04:28:37.242Z,14.59
2017-10-03T04:31:09.116Z,14.58
2017-10-03T04:33:40.211Z,14.58
2017-10-03T04:36:11.360Z,14.55
2017-10-03T04:38:42.441Z,14.53
2017-10-03T04:41:13.718Z,14.53
2017-10-03T04:43:44.805Z,14.51
2017-10-03T04:46:15.879Z,14.48
2017-10-03T04:48:47.002Z,14.47
2017-10-03T04:51:18.132Z,14.42
2017-10-03T04:53:49.204Z,14.37
2017-10-03T04:56:20.276Z,14.37
2017-10-03T04:58:51.368Z,14.40
2017-10-03T05:01:22.446Z,14.40
2017-10-03T05:03:53.502Z,14.39
2017-10-03T05:06:24.987Z,14.38
2017-10-03T05:08:56.102Z,14.37
2017-10-03T05:11:29.715Z,14.40
2017-10-03T05:14:00.823Z,14.41
2017-10-03T05:16:32.475Z,14.47
2017-10-03T05:19:09.252Z,14.45
2017-10-03T05:21:40.728Z,14.39
2017-10-03T05:24:12.323Z,14.34
2017-10-03T05:26:43.542Z,14.33
2017-10-03T05:29:14.796Z,14.28
2017-10-03T05:31:47.134Z,14.29
2017-10-03T05:34:21.940Z,14.26
2017-10-03T05:36:54.186Z,14.24
2017-10-03T05:39:28.016Z,14.23
2017-10-03T05:42:00.350Z,14.20
2017-10-03T05:44:33.323Z,14.19
2017-10-03T05:47:12.975Z,14.21
2017-10-03T05:49:45.737Z,14.23
2017-10-03T05:52:16.908Z,14.23
2017-10-03T05:54:47.983Z,14.22
2017-10-03T05:57:20.847Z,14.25
2017-10-03T05:59:53.616Z,14.27
2017-10-03T06:02:25.345Z,14.27
2017-10-03T06:04:56.858Z,14.27
2017-10-03T06:07:30.211Z,14.29
2017-10-03T06:10:03.924Z,14.32
2017-10-03T06:12:35.346Z,14.31
2017-10-03T06:15:06.458Z,14.31
2017-10-03T06:17:37.880Z,14.29
2017-10-03T06:20:09.202Z,14.31
2017-10-03T06:22:41.400Z,14.30
2017-10-03T06:25:13.651Z,14.34
2017-10-03T06:27:45.269Z,14.39
2017-10-03T06:30:19.905Z,14.43
2017-10-03T06:32:51.213Z,14.53
2017-10-03T06:35:23.358Z,14.60
2017-10-03T06:37:54.447Z,14.65
2017-10-03T06:40:30.449Z,14.70
2017-10-03T06:43:05.424Z,14.78
2017-10-03T06:45:36.828Z,14.84
2017-10-03T06:48:08.965Z,14.91
2017-10-03T06:50:40.148Z,14.93
2017-10-03T06:53:11.204Z,14.94
2017-10-03T06:55:42.797Z,14.94
2017-10-03T06:58:15.395Z,14.99
2017-10-03T07:00:46.672Z,15.07
2017-10-03T07:03:17.865Z,15.15
2017-10-03T07:05:49.295Z,15.29
2017-10-03T07:08:21.231Z,15.34
2017-10-03T07:13:50.358Z,15.51
2017-10-03T07:16:25.223Z,15.55
2017-10-03T07:18:56.909Z,15.59
2017-10-03T07:21:28.778Z,15.64
2017-10-03T07:24:03.011Z,15.71
2017-10-03T07:26:34.294Z,15.76
2017-10-03T07:29:09.741Z,15.82
2017-10-03T07:31:44.800Z,15.93
2017-10-03T07:34:17.582Z,15.96
2017-10-03T07:36:50.374Z,15.99
2017-10-03T07:39:24.007Z,15.98
2017-10-03T07:42:13.083Z,16.01
2017-10-03T07:44:44.590Z,16.06
2017-10-03T07:47:24.149Z,16.07
2017-10-03T07:53:02.888Z,16.20
2017-10-03T07:55:38.307Z,16.29
2017-10-03T07:58:17.874Z,16.43
2017-10-03T08:00:52.204Z,16.68
2017-10-03T08:03:31.572Z,16.92
2017-10-03T08:09:06.908Z,17.15
2017-10-03T08:11:41.891Z,17.08
2017-10-03T08:14:13.589Z,17.19
2017-10-03T08:16:46.804Z,17.25
2017-10-03T08:19:20.259Z,17.27
2017-10-03T08:21:55.078Z,17.33
2017-10-03T08:24:27.406Z,17.42
2017-10-03T08:27:07.548Z,17.62
2017-10-03T08:32:38.453Z,18.38
2017-10-03T08:35:11.366Z,18.60
2017-10-03T08:43:35.466Z,18.42
2017-10-03T08:46:10.709Z,18.56
2017-10-03T08:48:42.318Z,18.66
2017-10-03T08:51:13.647Z,19.00
2017-10-03T08:53:44.814Z,19.37
2017-10-03T08:56:18.458Z,19.37
2017-10-03T08:58:49.877Z,19.65
2017-10-03T09:01:21.137Z,20.08
2017-10-03T09:03:52.359Z,20.26
2017-10-03T09:06:23.671Z,20.20
2017-10-03T09:09:02.879Z,19.93
2017-10-03T09:11:39.558Z,20.11
2017-10-03T09:14:19.830Z,20.56
2017-10-03T09:16:50.930Z,20.53
2017-10-03T09:19:22.441Z,20.12
2017-10-03T09:21:53.586Z,20.47
2017-10-03T09:24:26.024Z,20.81
2017-10-03T09:26:57.300Z,21.14
2017-10-03T09:29:31.266Z,21.50
2017-10-03T09:32:04.781Z,21.95
2017-10-03T09:34:36.723Z,22.23
2017-10-03T09:37:07.903Z,21.92
2017-10-03T09:39:40.304Z,21.43
2017-10-03T09:42:12.040Z,21.45
2017-10-03T09:44:44.194Z,25.32
2017-10-03T09:47:19.507Z,28.79
2017-10-03T09:49:52.046Z,31.80
2017-10-03T09:52:24.623Z,34.23
2017-10-03T09:54:57.161Z,33.34
2017-10-03T09:57:30.583Z,34.34
2017-10-03T10:00:03.678Z,36.19
2017-10-03T10:02:34.985Z,38.40
2017-10-03T10:05:06.170Z,39.84
2017-10-03T10:10:43.557Z,42.37
2017-10-03T10:13:19.303Z,42.99
2017-10-03T10:15:52.747Z,43.73
2017-10-03T10:18:26.451Z,40.58
2017-10-03T10:21:03.091Z,37.87
2017-10-03T10:23:35.918Z,39.52
2017-10-03T10:26:13.973Z,41.31
2017-10-03T10:28:49.110Z,42.79
2017-10-03T10:31:20.617Z,42.03
2017-10-03T10:33:54.428Z,43.77
2017-10-03T10:36:28.159Z,43.62
2017-10-03T10:39:02.951Z,42.30
2017-10-03T10:44:33.732Z,46.02
2017-10-03T10:47:07.964Z,47.22
2017-10-03T10:49:39.343Z,48.77
2017-10-03T10:52:10.601Z,49.19
2017-10-03T10:54:41.694Z,49.79
2017-10-03T11:00:22.359Z,49.82
2017-10-03T11:02:53.501Z,47.86
2017-10-03T11:05:25.705Z,44.19
2017-10-03T11:07:57.200Z,45.97
2017-10-03T11:13:36.037Z,42.69
2017-10-03T11:16:08.575Z,46.27
2017-10-03T11:21:45.154Z,45.12
2017-10-03T11:24:50.845Z,44.58
2017-10-03T11:27:29.978Z,40.01
2017-10-03T11:33:04.427Z,35.47
2017-10-03T11:35:35.576Z,32.93
2017-10-03T11:38:10.488Z,30.83
2017-10-03T11:40:42.034Z,29.91
2017-10-03T11:43:13.134Z,31.88
2017-10-03T11:45:44.210Z,33.45
2017-10-03T11:48:16.001Z,33.57
2017-10-03T11:50:47.161Z,32.57
2017-10-03T11:53:18.948Z,31.11
2017-10-03T11:55:50.529Z,31.30
2017-10-03T11:58:24.719Z,31.68
2017-10-03T12:00:55.810Z,30.32
2017-10-03T12:03:27.225Z,28.73
2017-10-03T12:05:58.301Z,27.74
2017-10-03T12:08:29.378Z,27.09
2017-10-03T12:11:01.031Z,28.18
2017-10-03T12:13:32.077Z,27.56
2017-10-03T12:16:07.870Z,26.90
2017-10-03T12:18:39.328Z,26.14
2017-10-03T12:21:10.387Z,25.42
2017-10-03T12:23:41.492Z,24.80
2017-10-03T12:26:13.770Z,25.10
2017-10-03T12:28:44.836Z,25.45
2017-10-03T12:31:15.912Z,25.08
2017-10-03T12:33:47.817Z,24.69
2017-10-03T12:36:20.258Z,25.19
2017-10-03T12:38:51.347Z,26.51
2017-10-03T12:41:25.389Z,26.91
2017-10-03T12:43:56.577Z,27.05
2017-10-03T12:46:28.048Z,27.35
2017-10-03T12:49:00.223Z,27.62
2017-10-03T12:51:31.291Z,27.62
2017-10-03T12:54:03.165Z,27.57
2017-10-03T12:56:34.605Z,27.27
2017-10-03T12:59:05.674Z,26.87
2017-10-03T13:01:36.728Z,26.77
2017-10-03T13:04:10.745Z,27.06
2017-10-03T13:06:41.937Z,30.31
2017-10-03T13:09:12.977Z,29.98
2017-10-03T13:11:44.336Z,28.50
2017-10-03T13:14:15.512Z,27.47
2017-10-03T13:16:46.682Z,26.77
2017-10-03T13:19:17.747Z,29.27
2017-10-03T13:21:49.370Z,35.86
2017-10-03T13:24:22.895Z,40.70
2017-10-03T13:26:54.312Z,43.51
2017-10-03T13:29:27.846Z,45.16
2017-10-03T13:31:59.224Z,47.17
2017-10-03T13:34:31.183Z,48.42
2017-10-03T13:37:05.108Z,48.37
2017-10-03T13:39:36.767Z,44.32
2017-10-03T13:42:09.863Z,45.65
2017-10-03T13:44:41.956Z,42.12
2017-10-03T13:47:13.786Z,38.49
2017-10-03T13:49:45.593Z,37.53
2017-10-03T13:52:21.648Z,36.77
2017-10-03T13:54:53.677Z,35.03
2017-10-03T13:57:31.002Z,34.30
2017-10-03T14:06:07.692Z,36.79
2017-10-03T14:08:39.654Z,35.78
2017-10-03T14:11:11.859Z,33.40
2017-10-03T14:13:43.070Z,35.67
2017-10-03T14:16:14.216Z,34.00
2017-10-03T14:18:45.330Z,31.79
2017-10-03T14:21:16.624Z,30.81
2017-10-03T14:23:48.140Z,31.00
2017-10-03T14:26:24.492Z,30.90
2017-10-03T14:28:56.059Z,32.24
2017-10-03T14:31:27.335Z,32.45
2017-10-03T14:33:58.476Z,33.55
2017-10-03T14:36:30.175Z,32.10
2017-10-03T14:39:05.523Z,30.72
2017-10-03T14:41:42.969Z,30.01
2017-10-03T14:47:22.500Z,29.55
2017-10-03T14:49:56.867Z,30.60
2017-10-03T15:01:49.321Z,27.92
2017-10-03T15:04:31.110Z,27.04
2017-10-03T15:10:16.775Z,25.11
2017-10-03T15:12:51.715Z,23.94
2017-10-03T15:15:27.557Z,23.40
2017-10-03T15:17:58.878Z,23.36
2017-10-03T15:20:33.627Z,23.54
2017-10-03T15:26:11.019Z,24.02
2017-10-03T15:28:42.259Z,25.21
2017-10-03T15:31:14.742Z,27.55
2017-10-03T15:33:49.219Z,30.07
2017-10-03T15:36:27.935Z,31.94
2017-10-03T15:38:59.527Z,31.30
2017-10-03T15:41:34.153Z,31.62
2017-10-03T15:44:08.039Z,30.65
2017-10-03T15:46:39.923Z,27.72
2017-10-03T15:49:17.568Z,25.85
2017-10-03T15:51:56.751Z,24.91
2017-10-03T15:54:28.613Z,24.35
2017-10-03T15:57:00.658Z,23.56
2017-10-03T15:59:32.048Z,22.54
2017-10-03T16:02:06.368Z,22.00
2017-10-03T16:04:53.694Z,22.96
2017-10-03T16:07:34.587Z,25.01
2017-10-03T16:10:11.440Z,24.29
2017-10-03T16:12:46.492Z,22.87
2017-10-03T16:15:21.302Z,22.07
2017-10-03T16:17:56.705Z,21.49
2017-10-03T16:23:39.767Z,20.65
2017-10-03T16:26:12.921Z,20.21
2017-10-03T16:28:46.609Z,19.89
2017-10-03T16:34:28.263Z,19.30
2017-10-03T16:37:04.644Z,19.14
2017-10-03T16:39:38.654Z,18.95
2017-10-03T16:42:12.433Z,18.77
2017-10-03T16:44:43.679Z,18.60
2017-10-03T16:47:15.391Z,18.45
2017-10-03T16:49:46.622Z,18.36
2017-10-03T16:52:21.055Z,18.28
2017-10-03T16:54:54.518Z,18.19
2017-10-03T16:57:27.518Z,18.05
2017-10-03T17:00:00.090Z,17.96
2017-10-03T17:03:09.016Z,17.88
2017-10-03T17:05:41.149Z,17.74
2017-10-03T17:08:15.649Z,17.67
2017-10-03T17:10:46.819Z,17.58
2017-10-03T17:13:18.988Z,17.51
2017-10-03T17:15:50.289Z,17.41
2017-10-03T17:18:24.296Z,17.31
2017-10-03T17:20:55.920Z,17.22
2017-10-03T17:23:27.731Z,17.17
2017-10-03T17:25:58.953Z,17.09
2017-10-03T17:28:30.432Z,17.03
2017-10-03T17:31:01.895Z,16.96
2017-10-03T17:33:34.413Z,16.87
2017-10-03T17:36:08.291Z,16.84
2017-10-03T17:38:39.948Z,16.80
2017-10-03T17:41:11.700Z,16.73
2017-10-03T17:43:43.181Z,16.69
2017-10-03T17:46:17.774Z,16.66
2017-10-03T17:48:49.352Z,16.64
2017-10-03T17:51:25.201Z,16.60
2017-10-03T17:53:56.946Z,16.58
2017-10-03T17:56:28.205Z,16.54
2017-10-03T17:59:01.521Z,16.56
2017-10-03T18:01:33.860Z,16.56
2017-10-03T18:04:17.176Z,16.51
2017-10-03T18:16:00.311Z,16.30
2017-10-03T18:18:35.179Z,16.25
2017-10-03T18:21:14.055Z,16.19
2017-10-03T18:23:46.566Z,16.15
2017-10-03T18:26:34.008Z,16.11
2017-10-03T18:29:09.669Z,16.08
2017-10-03T18:31:41.518Z,16.03
2017-10-03T18:34:14.280Z,15.99
2017-10-03T18:36:46.129Z,15.95
2017-10-03T18:39:19.386Z,15.90
2017-10-03T18:41:51.424Z,15.86
2017-10-03T18:44:23.577Z,15.81
2017-10-03T18:46:58.333Z,15.77
2017-10-03T18:49:34.555Z,15.75
2017-10-03T18:52:09.208Z,15.73
2017-10-03T18:54:43.611Z,15.71
2017-10-03T18:57:20.562Z,15.64
2017-10-03T18:59:53.661Z,15.57
2017-10-03T19:02:29.195Z,15.51
2017-10-03T19:05:05.424Z,15.47
2017-10-03T19:07:38.833Z,15.40
2017-10-03T19:13:16.919Z,15.30
2017-10-03T19:15:50.435Z,15.29
2017-10-03T19:18:28.635Z,15.26
2017-10-03T19:21:02.154Z,15.24
2017-10-03T19:23:41.745Z,15.19
2017-10-03T19:26:14.936Z,15.17
2017-10-03T19:34:49.528Z,15.10
2017-10-03T19:40:30.910Z,15.05
2017-10-03T19:43:05.792Z,15.02
2017-10-03T19:45:40.756Z,15.01
2017-10-03T19:48:14.769Z,14.98
2017-10-03T19:50:51.450Z,14.97
2017-10-03T19:53:27.452Z,14.94
2017-10-03T19:56:00.357Z,14.92
2017-10-03T19:58:34.279Z,14.89
2017-10-03T20:11:55.113Z,14.81
2017-10-03T20:14:27.551Z,14.72
2017-10-03T20:17:00.273Z,14.67
2017-10-03T20:19:34.701Z,14.62
2017-10-03T20:22:06.910Z,14.61
2017-10-03T20:24:38.663Z,14.60
2017-10-03T20:30:16.328Z,14.54
2017-10-03T20:32:49.674Z,14.51
2017-10-03T20:35:22.394Z,14.48
2017-10-03T20:37:57.906Z,14.49
2017-10-03T20:43:37.305Z,14.46
2017-10-03T20:46:09.012Z,14.43
2017-10-03T20:48:41.584Z,14.41
2017-10-03T20:51:13.600Z,14.38
2017-10-03T20:53:45.244Z,14.37
2017-10-03T20:56:17.527Z,14.35
2017-10-03T20:58:49.123Z,14.32
2017-10-03T21:01:20.657Z,14.29
2017-10-03T21:03:52.997Z,14.27
2017-10-03T21:06:24.463Z,14.23
2017-10-03T21:08:56.361Z,14.22
2017-10-03T21:11:28.414Z,14.20
2017-10-03T21:13:59.931Z,14.16
2017-10-03T21:16:33.402Z,14.12
2017-10-03T21:19:06.974Z,14.08
2017-10-03T21:21:40.315Z,14.11
2017-10-03T21:24:12.764Z,14.11
2017-10-03T21:26:44.448Z,14.09
2017-10-03T21:29:17.663Z,14.08
2017-10-03T21:31:50.543Z,14.04
2017-10-03T21:34:22.539Z,14.00
2017-10-03T21:36:54.381Z,13.98
2017-10-03T21:39:26.333Z,13.92
2017-10-03T21:42:07.188Z,13.86
2017-10-03T21:44:39.844Z,13.85
2017-10-03T21:47:12.449Z,13.83
2017-10-03T21:49:48.416Z,13.77
2017-10-03T21:52:25.483Z,13.76
2017-10-03T21:55:00.146Z,13.73
2017-10-03T21:57:32.469Z,13.69
2017-10-03T22:00:15.929Z,13.67
2017-10-03T22:02:48.053Z,13.66
2017-10-03T22:05:20.847Z,13.66
2017-10-03T22:07:52.333Z,13.66
2017-10-03T22:10:24.812Z,13.69
2017-10-03T22:12:57.231Z,13.67
2017-10-03T22:15:28.404Z,13.63
2017-10-03T22:17:59.539Z,13.63
2017-10-03T22:20:31.157Z,13.58
2017-10-03T22:23:09.704Z,13.55
2017-10-03T22:25:44.628Z,13.54
2017-10-03T22:28:16.048Z,13.54
2017-10-03T22:30:50.831Z,13.52
2017-10-03T22:33:22.962Z,13.50
2017-10-03T22:35:55.246Z,13.50
2017-10-03T22:38:26.712Z,13.50
2017-10-03T22:40:59.057Z,13.48
2017-10-03T22:43:30.156Z,13.47
2017-10-03T22:46:04.736Z,13.43
2017-10-03T22:48:37.783Z,13.40
2017-10-03T22:57:12.312Z,13.34
2017-10-03T22:59:43.385Z,13.30
2017-10-03T23:02:14.744Z,13.30
2017-10-03T23:04:45.840Z,13.30
2017-10-03T23:07:17.848Z,13.31
2017-10-03T23:09:50.380Z,13.31
2017-10-03T23:15:16.912Z,13.37
2017-10-03T23:17:48.090Z,13.39
2017-10-03T23:20:23.157Z,13.40
2017-10-03T23:28:43.293Z,13.30
2017-10-03T23:34:11.753Z,13.27
2017-10-03T23:36:42.816Z,13.24
2017-10-03T23:39:16.302Z,13.18
2017-10-03T23:41:47.424Z,13.19
2017-10-03T23:44:20.456Z,13.18
2017-10-03T23:46:51.550Z,13.17
2017-10-03T23:49:25.891Z,13.17
2017-10-03T23:51:57.068Z,13.16
2017-10-03T23:54:30.895Z,13.11
2017-10-03T23:57:04.066Z,13.02
2017-10-03T23:59:35.436Z,12.95
